sensor_id;sensor_type;location;lat;lon;timestamp;temperature;humidity
73133;DHT22;61320;52.008;4.530;2023-09-18T00:00:40;20.24;86.00
73133;DHT22;61320;52.008;4.530;2023-09-18T00:03:08;20.24;85.94
73133;DHT22;61320;52.008;4.530;2023-09-18T00:05:34;20.25;86.04
73133;DHT22;61320;52.008;4.530;2023-09-18T00:07:59;20.26;86.07
73133;DHT22;61320;52.008;4.530;2023-09-18T00:10:27;20.28;86.04
73133;DHT22;61320;52.008;4.530;2023-09-18T00:12:54;20.26;86.08
73133;DHT22;61320;52.008;4.530;2023-09-18T00:15:20;20.29;85.93
73133;DHT22;61320;52.008;4.530;2023-09-18T00:17:45;20.30;85.96
73133;DHT22;61320;52.008;4.530;2023-09-18T00:20:11;20.30;86.07
73133;DHT22;61320;52.008;4.530;2023-09-18T00:22:37;20.33;85.90
73133;DHT22;61320;52.008;4.530;2023-09-18T00:25:03;20.33;86.10
73133;DHT22;61320;52.008;4.530;2023-09-18T00:27:29;20.29;86.05
73133;DHT22;61320;52.008;4.530;2023-09-18T00:29:54;20.29;86.16
73133;DHT22;61320;52.008;4.530;2023-09-18T00:32:20;20.32;86.21
73133;DHT22;61320;52.008;4.530;2023-09-18T00:34:45;20.33;86.19
73133;DHT22;61320;52.008;4.530;2023-09-18T00:37:11;20.36;86.14
73133;DHT22;61320;52.008;4.530;2023-09-18T00:39:38;20.36;86.10
73133;DHT22;61320;52.008;4.530;2023-09-18T00:42:03;20.37;86.12
73133;DHT22;61320;52.008;4.530;2023-09-18T00:44:29;20.36;86.06
73133;DHT22;61320;52.008;4.530;2023-09-18T00:46:55;20.37;85.99
73133;DHT22;61320;52.008;4.530;2023-09-18T00:49:22;20.40;85.99
73133;DHT22;61320;52.008;4.530;2023-09-18T00:51:49;20.43;86.03
73133;DHT22;61320;52.008;4.530;2023-09-18T00:54:18;20.40;85.94
73133;DHT22;61320;52.008;4.530;2023-09-18T00:56:46;20.42;86.05
73133;DHT22;61320;52.008;4.530;2023-09-18T00:59:14;20.42;86.06
73133;DHT22;61320;52.008;4.530;2023-09-18T01:01:42;20.42;86.08
73133;DHT22;61320;52.008;4.530;2023-09-18T01:04:07;20.45;86.00
73133;DHT22;61320;52.008;4.530;2023-09-18T01:06:33;20.43;85.98
73133;DHT22;61320;52.008;4.530;2023-09-18T01:08:59;20.45;86.05
73133;DHT22;61320;52.008;4.530;2023-09-18T01:17:10;20.49;86.06
73133;DHT22;61320;52.008;4.530;2023-09-18T01:19:44;20.47;86.08
73133;DHT22;61320;52.008;4.530;2023-09-18T01:22:15;20.50;86.09
73133;DHT22;61320;52.008;4.530;2023-09-18T01:24:43;20.50;86.13
73133;DHT22;61320;52.008;4.530;2023-09-18T01:27:11;20.52;86.05
73133;DHT22;61320;52.008;4.530;2023-09-18T01:29:38;20.50;86.05
73133;DHT22;61320;52.008;4.530;2023-09-18T01:32:04;20.50;86.06
73133;DHT22;61320;52.008;4.530;2023-09-18T01:34:35;20.52;86.03
73133;DHT22;61320;52.008;4.530;2023-09-18T01:37:03;20.53;85.99
73133;DHT22;61320;52.008;4.530;2023-09-18T01:39:31;20.55;86.12
73133;DHT22;61320;52.008;4.530;2023-09-18T01:41:59;20.57;86.19
73133;DHT22;61320;52.008;4.530;2023-09-18T01:44:27;20.57;86.17
73133;DHT22;61320;52.008;4.530;2023-09-18T01:46:53;20.59;86.15
73133;DHT22;61320;52.008;4.530;2023-09-18T01:49:35;20.62;86.21
73133;DHT22;61320;52.008;4.530;2023-09-18T01:52:03;20.63;86.09
73133;DHT22;61320;52.008;4.530;2023-09-18T01:54:30;20.67;86.09
73133;DHT22;61320;52.008;4.530;2023-09-18T01:56:55;20.63;86.10
73133;DHT22;61320;52.008;4.530;2023-09-18T01:59:22;20.66;86.08
73133;DHT22;61320;52.008;4.530;2023-09-18T02:01:49;20.69;86.12
73133;DHT22;61320;52.008;4.530;2023-09-18T02:04:14;20.69;86.06
73133;DHT22;61320;52.008;4.530;2023-09-18T02:06:40;20.72;86.02
73133;DHT22;61320;52.008;4.530;2023-09-18T02:09:06;20.72;86.00
73133;DHT22;61320;52.008;4.530;2023-09-18T02:11:40;20.72;86.16
73133;DHT22;61320;52.008;4.530;2023-09-18T02:14:06;20.76;86.21
73133;DHT22;61320;52.008;4.530;2023-09-18T02:16:33;20.77;86.14
73133;DHT22;61320;52.008;4.530;2023-09-18T02:18:59;20.79;85.98
73133;DHT22;61320;52.008;4.530;2023-09-18T02:21:24;20.80;86.01
73133;DHT22;61320;52.008;4.530;2023-09-18T02:23:51;20.79;86.02
73133;DHT22;61320;52.008;4.530;2023-09-18T02:26:18;20.81;86.01
73133;DHT22;61320;52.008;4.530;2023-09-18T02:28:43;20.84;85.82
73133;DHT22;61320;52.008;4.530;2023-09-18T02:31:09;20.83;85.97
73133;DHT22;61320;52.008;4.530;2023-09-18T02:33:35;20.87;85.91
73133;DHT22;61320;52.008;4.530;2023-09-18T02:36:00;20.87;85.92
73133;DHT22;61320;52.008;4.530;2023-09-18T02:38:27;20.88;85.89
73133;DHT22;61320;52.008;4.530;2023-09-18T02:40:53;20.88;85.94
73133;DHT22;61320;52.008;4.530;2023-09-18T02:43:19;20.88;86.00
73133;DHT22;61320;52.008;4.530;2023-09-18T02:45:45;20.85;85.79
73133;DHT22;61320;52.008;4.530;2023-09-18T02:48:11;20.87;86.05
73133;DHT22;61320;52.008;4.530;2023-09-18T02:50:36;20.88;86.08
73133;DHT22;61320;52.008;4.530;2023-09-18T02:53:02;20.87;86.17
73133;DHT22;61320;52.008;4.530;2023-09-18T02:55:28;20.90;86.14
73133;DHT22;61320;52.008;4.530;2023-09-18T02:57:54;20.88;86.18
73133;DHT22;61320;52.008;4.530;2023-09-18T03:00:20;20.87;86.24
73133;DHT22;61320;52.008;4.530;2023-09-18T03:02:46;20.88;86.21
73133;DHT22;61320;52.008;4.530;2023-09-18T03:05:11;20.88;86.22
73133;DHT22;61320;52.008;4.530;2023-09-18T03:07:37;20.87;86.56
73133;DHT22;61320;52.008;4.530;2023-09-18T03:10:03;20.84;86.39
73133;DHT22;61320;52.008;4.530;2023-09-18T03:12:30;20.81;86.52
73133;DHT22;61320;52.008;4.530;2023-09-18T03:14:57;20.76;86.59
73133;DHT22;61320;52.008;4.530;2023-09-18T03:17:22;20.79;86.74
73133;DHT22;61320;52.008;4.530;2023-09-18T03:19:48;20.79;86.76
73133;DHT22;61320;52.008;4.530;2023-09-18T03:22:14;20.80;86.79
73133;DHT22;61320;52.008;4.530;2023-09-18T03:24:40;20.80;86.75
73133;DHT22;61320;52.008;4.530;2023-09-18T03:27:05;20.79;86.65
73133;DHT22;61320;52.008;4.530;2023-09-18T03:29:30;20.79;86.44
73133;DHT22;61320;52.008;4.530;2023-09-18T03:31:56;20.80;86.59
73133;DHT22;61320;52.008;4.530;2023-09-18T03:34:23;20.69;87.55
73133;DHT22;61320;52.008;4.530;2023-09-18T03:36:52;20.57;88.03
73133;DHT22;61320;52.008;4.530;2023-09-18T03:41:43;20.49;89.09
73133;DHT22;61320;52.008;4.530;2023-09-18T03:44:10;20.45;89.39
73133;DHT22;61320;52.008;4.530;2023-09-18T03:46:36;20.42;89.52
73133;DHT22;61320;52.008;4.530;2023-09-18T03:49:02;20.40;89.73
73133;DHT22;61320;52.008;4.530;2023-09-18T03:51:29;20.40;89.88
73133;DHT22;61320;52.008;4.530;2023-09-18T03:53:55;20.42;89.99
73133;DHT22;61320;52.008;4.530;2023-09-18T03:56:21;20.42;90.15
73133;DHT22;61320;52.008;4.530;2023-09-18T03:58:47;20.43;90.39
73133;DHT22;61320;52.008;4.530;2023-09-18T04:01:18;20.45;90.44
73133;DHT22;61320;52.008;4.530;2023-09-18T04:03:43;20.43;90.06
73133;DHT22;61320;52.008;4.530;2023-09-18T04:06:09;20.30;89.13
73133;DHT22;61320;52.008;4.530;2023-09-18T04:08:34;20.18;90.40
73133;DHT22;61320;52.008;4.530;2023-09-18T04:11:00;20.14;90.74
73133;DHT22;61320;52.008;4.530;2023-09-18T04:13:26;20.18;91.06
73133;DHT22;61320;52.008;4.530;2023-09-18T04:15:51;20.21;90.72
73133;DHT22;61320;52.008;4.530;2023-09-18T04:18:22;20.21;90.88
73133;DHT22;61320;52.008;4.530;2023-09-18T04:20:48;20.21;90.57
73133;DHT22;61320;52.008;4.530;2023-09-18T04:23:24;20.19;90.64
73133;DHT22;61320;52.008;4.530;2023-09-18T04:25:51;20.19;90.29
73133;DHT22;61320;52.008;4.530;2023-09-18T04:28:19;20.18;90.55
73133;DHT22;61320;52.008;4.530;2023-09-18T04:30:45;20.21;90.53
73133;DHT22;61320;52.008;4.530;2023-09-18T04:33:13;20.24;90.06
73133;DHT22;61320;52.008;4.530;2023-09-18T04:35:38;20.21;89.95
73133;DHT22;61320;52.008;4.530;2023-09-18T04:38:07;20.21;89.59
73133;DHT22;61320;52.008;4.530;2023-09-18T04:40:37;20.14;90.36
73133;DHT22;61320;52.008;4.530;2023-09-18T04:43:02;20.22;90.27
73133;DHT22;61320;52.008;4.530;2023-09-18T04:45:31;20.28;89.78
73133;DHT22;61320;52.008;4.530;2023-09-18T04:47:57;20.25;89.97
73133;DHT22;61320;52.008;4.530;2023-09-18T04:50:22;20.25;90.14
73133;DHT22;61320;52.008;4.530;2023-09-18T04:52:48;20.32;90.34
73133;DHT22;61320;52.008;4.530;2023-09-18T04:55:16;20.30;90.10
73133;DHT22;61320;52.008;4.530;2023-09-18T04:57:41;20.30;90.14
73133;DHT22;61320;52.008;4.530;2023-09-18T05:00:07;20.29;89.90
73133;DHT22;61320;52.008;4.530;2023-09-18T05:02:34;20.32;89.98
73133;DHT22;61320;52.008;4.530;2023-09-18T05:05:00;20.30;89.92
73133;DHT22;61320;52.008;4.530;2023-09-18T05:07:26;20.29;89.58
73133;DHT22;61320;52.008;4.530;2023-09-18T05:09:52;20.26;89.75
73133;DHT22;61320;52.008;4.530;2023-09-18T05:12:18;20.24;89.95
73133;DHT22;61320;52.008;4.530;2023-09-18T05:14:43;20.24;89.77
73133;DHT22;61320;52.008;4.530;2023-09-18T05:17:15;20.21;90.23
73133;DHT22;61320;52.008;4.530;2023-09-18T05:19:41;20.22;90.37
73133;DHT22;61320;52.008;4.530;2023-09-18T05:22:13;20.25;90.08
73133;DHT22;61320;52.008;4.530;2023-09-18T05:24:39;20.24;90.00
73133;DHT22;61320;52.008;4.530;2023-09-18T05:27:08;20.22;90.55
73133;DHT22;61320;52.008;4.530;2023-09-18T05:29:34;20.29;90.09
73133;DHT22;61320;52.008;4.530;2023-09-18T05:32:04;20.32;90.39
73133;DHT22;61320;52.008;4.530;2023-09-18T05:34:29;20.32;90.59
73133;DHT22;61320;52.008;4.530;2023-09-18T05:36:54;20.39;90.14
73133;DHT22;61320;52.008;4.530;2023-09-18T05:39:20;20.37;90.15
73133;DHT22;61320;52.008;4.530;2023-09-18T05:41:45;20.39;90.10
73133;DHT22;61320;52.008;4.530;2023-09-18T05:44:11;20.42;90.33
73133;DHT22;61320;52.008;4.530;2023-09-18T05:46:36;20.47;90.23
73133;DHT22;61320;52.008;4.530;2023-09-18T05:49:02;20.52;90.36
73133;DHT22;61320;52.008;4.530;2023-09-18T05:51:29;20.57;89.97
73133;DHT22;61320;52.008;4.530;2023-09-18T05:53:55;20.59;90.19
73133;DHT22;61320;52.008;4.530;2023-09-18T05:56:20;20.56;90.42
73133;DHT22;61320;52.008;4.530;2023-09-18T05:58:46;20.59;90.21
73133;DHT22;61320;52.008;4.530;2023-09-18T06:01:11;20.64;89.99
73133;DHT22;61320;52.008;4.530;2023-09-18T06:03:37;20.67;89.82
73133;DHT22;61320;52.008;4.530;2023-09-18T06:06:03;20.69;89.39
73133;DHT22;61320;52.008;4.530;2023-09-18T06:08:29;20.67;89.54
73133;DHT22;61320;52.008;4.530;2023-09-18T06:10:57;20.67;88.97
73133;DHT22;61320;52.008;4.530;2023-09-18T06:13:26;20.63;89.09
73133;DHT22;61320;52.008;4.530;2023-09-18T06:15:53;20.55;89.05
73133;DHT22;61320;52.008;4.530;2023-09-18T06:18:21;20.46;89.51
73133;DHT22;61320;52.008;4.530;2023-09-18T06:20:47;20.45;89.42
73133;DHT22;61320;52.008;4.530;2023-09-18T06:23:13;20.47;89.60
73133;DHT22;61320;52.008;4.530;2023-09-18T06:25:39;20.45;88.87
73133;DHT22;61320;52.008;4.530;2023-09-18T06:28:05;20.43;88.92
73133;DHT22;61320;52.008;4.530;2023-09-18T06:30:32;20.40;89.25
73133;DHT22;61320;52.008;4.530;2023-09-18T06:32:59;20.35;88.77
73133;DHT22;61320;52.008;4.530;2023-09-18T06:35:25;20.30;89.24
73133;DHT22;61320;52.008;4.530;2023-09-18T06:37:50;20.35;89.25
73133;DHT22;61320;52.008;4.530;2023-09-18T06:40:16;20.40;89.25
73133;DHT22;61320;52.008;4.530;2023-09-18T06:42:42;20.45;88.78
73133;DHT22;61320;52.008;4.530;2023-09-18T06:45:08;20.47;88.94
73133;DHT22;61320;52.008;4.530;2023-09-18T06:47:34;20.47;89.21
73133;DHT22;61320;52.008;4.530;2023-09-18T06:50:00;20.53;88.17
73133;DHT22;61320;52.008;4.530;2023-09-18T06:52:26;20.52;87.87
73133;DHT22;61320;52.008;4.530;2023-09-18T06:54:53;20.39;87.77
73133;DHT22;61320;52.008;4.530;2023-09-18T06:57:19;20.30;88.39
73133;DHT22;61320;52.008;4.530;2023-09-18T06:59:46;20.29;88.49
73133;DHT22;61320;52.008;4.530;2023-09-18T07:02:12;20.35;87.65
73133;DHT22;61320;52.008;4.530;2023-09-18T07:04:40;20.26;87.88
73133;DHT22;61320;52.008;4.530;2023-09-18T07:07:11;20.19;87.89
73133;DHT22;61320;52.008;4.530;2023-09-18T07:12:03;20.16;87.76
73133;DHT22;61320;52.008;4.530;2023-09-18T07:14:28;20.11;88.64
73133;DHT22;61320;52.008;4.530;2023-09-18T07:16:54;20.15;87.84
73133;DHT22;61320;52.008;4.530;2023-09-18T07:19:19;20.08;88.11
73133;DHT22;61320;52.008;4.530;2023-09-18T07:21:44;20.08;88.25
73133;DHT22;61320;52.008;4.530;2023-09-18T07:24:10;20.08;88.27
73133;DHT22;61320;52.008;4.530;2023-09-18T07:26:42;20.09;87.78
73133;DHT22;61320;52.008;4.530;2023-09-18T07:29:07;20.06;87.57
73133;DHT22;61320;52.008;4.530;2023-09-18T07:31:33;19.99;87.66
73133;DHT22;61320;52.008;4.530;2023-09-18T07:33:58;19.95;87.95
73133;DHT22;61320;52.008;4.530;2023-09-18T07:36:24;19.97;88.32
73133;DHT22;61320;52.008;4.530;2023-09-18T07:38:50;19.98;87.95
73133;DHT22;61320;52.008;4.530;2023-09-18T07:41:15;19.94;87.77
73133;DHT22;61320;52.008;4.530;2023-09-18T07:43:40;19.85;88.21
73133;DHT22;61320;52.008;4.530;2023-09-18T07:46:07;19.79;88.09
73133;DHT22;61320;52.008;4.530;2023-09-18T07:48:32;19.79;87.93
73133;DHT22;61320;52.008;4.530;2023-09-18T07:50:57;19.78;88.25
73133;DHT22;61320;52.008;4.530;2023-09-18T07:53:23;19.71;88.00
73133;DHT22;61320;52.008;4.530;2023-09-18T07:55:56;19.71;87.92
73133;DHT22;61320;52.008;4.530;2023-09-18T07:58:22;19.74;88.61
73133;DHT22;61320;52.008;4.530;2023-09-18T08:00:48;19.78;88.02
73133;DHT22;61320;52.008;4.530;2023-09-18T08:03:13;19.79;88.67
73133;DHT22;61320;52.008;4.530;2023-09-18T08:05:40;19.82;88.21
73133;DHT22;61320;52.008;4.530;2023-09-18T08:08:08;19.81;88.55
73133;DHT22;61320;52.008;4.530;2023-09-18T08:10:36;19.87;88.27
73133;DHT22;61320;52.008;4.530;2023-09-18T08:13:05;19.88;88.36
73133;DHT22;61320;52.008;4.530;2023-09-18T08:15:31;19.92;88.68
73133;DHT22;61320;52.008;4.530;2023-09-18T08:17:56;19.98;87.81
73133;DHT22;61320;52.008;4.530;2023-09-18T08:20:21;20.02;87.74
73133;DHT22;61320;52.008;4.530;2023-09-18T08:22:47;20.11;87.92
73133;DHT22;61320;52.008;4.530;2023-09-18T08:25:13;20.14;87.58
73133;DHT22;61320;52.008;4.530;2023-09-18T08:27:42;20.15;87.86
73133;DHT22;61320;52.008;4.530;2023-09-18T08:30:10;20.25;87.82
73133;DHT22;61320;52.008;4.530;2023-09-18T08:32:37;20.29;87.13
73133;DHT22;61320;52.008;4.530;2023-09-18T08:35:03;20.30;86.75
73133;DHT22;61320;52.008;4.530;2023-09-18T08:37:29;20.29;86.46
73133;DHT22;61320;52.008;4.530;2023-09-18T08:39:54;20.25;86.49
73133;DHT22;61320;52.008;4.530;2023-09-18T08:42:20;20.22;86.69
73133;DHT22;61320;52.008;4.530;2023-09-18T08:44:49;20.15;87.45
73133;DHT22;61320;52.008;4.530;2023-09-18T08:47:18;20.18;86.36
73133;DHT22;61320;52.008;4.530;2023-09-18T08:49:46;20.01;85.09
73133;DHT22;61320;52.008;4.530;2023-09-18T08:52:15;19.89;85.64
73133;DHT22;61320;52.008;4.530;2023-09-18T08:54:43;19.79;85.90
73133;DHT22;61320;52.008;4.530;2023-09-18T08:57:08;19.74;85.65
73133;DHT22;61320;52.008;4.530;2023-09-18T08:59:35;19.63;85.64
73133;DHT22;61320;52.008;4.530;2023-09-18T09:02:04;19.66;86.00
73133;DHT22;61320;52.008;4.530;2023-09-18T09:04:29;19.67;86.75
73133;DHT22;61320;52.008;4.530;2023-09-18T09:06:55;19.67;85.99
73133;DHT22;61320;52.008;4.530;2023-09-18T09:09:25;19.70;85.29
73133;DHT22;61320;52.008;4.530;2023-09-18T09:11:52;19.67;85.12
73133;DHT22;61320;52.008;4.530;2023-09-18T09:14:18;19.64;84.81
73133;DHT22;61320;52.008;4.530;2023-09-18T09:16:51;19.63;85.19
73133;DHT22;61320;52.008;4.530;2023-09-18T09:19:18;19.64;84.89
73133;DHT22;61320;52.008;4.530;2023-09-18T09:21:52;19.66;85.18
73133;DHT22;61320;52.008;4.530;2023-09-18T09:24:42;19.66;85.57
73133;DHT22;61320;52.008;4.530;2023-09-18T09:27:11;19.79;86.06
73133;DHT22;61320;52.008;4.530;2023-09-18T09:29:37;19.85;85.10
73133;DHT22;61320;52.008;4.530;2023-09-18T09:32:16;19.81;84.97
73133;DHT22;61320;52.008;4.530;2023-09-18T09:34:43;19.87;84.37
73133;DHT22;61320;52.008;4.530;2023-09-18T09:37:10;19.92;84.22
73133;DHT22;61320;52.008;4.530;2023-09-18T09:39:56;19.98;84.05
73133;DHT22;61320;52.008;4.530;2023-09-18T09:42:22;20.04;84.74
73133;DHT22;61320;52.008;4.530;2023-09-18T09:45:03;20.09;84.29
73133;DHT22;61320;52.008;4.530;2023-09-18T09:47:35;20.18;83.26
73133;DHT22;61320;52.008;4.530;2023-09-18T09:50:14;20.29;83.43
73133;DHT22;61320;52.008;4.530;2023-09-18T09:52:46;20.32;81.87
73133;DHT22;61320;52.008;4.530;2023-09-18T09:55:22;20.24;81.84
73133;DHT22;61320;52.008;4.530;2023-09-18T09:57:51;20.30;82.50
73133;DHT22;61320;52.008;4.530;2023-09-18T10:00:16;20.53;81.38
73133;DHT22;61320;52.008;4.530;2023-09-18T10:03:04;20.56;81.88
73133;DHT22;61320;52.008;4.530;2023-09-18T10:05:32;20.59;81.59
73133;DHT22;61320;52.008;4.530;2023-09-18T10:08:02;20.60;81.29
73133;DHT22;61320;52.008;4.530;2023-09-18T10:10:31;20.53;81.72
73133;DHT22;61320;52.008;4.530;2023-09-18T10:13:05;20.60;82.80
73133;DHT22;61320;52.008;4.530;2023-09-18T10:15:34;20.70;81.36
73133;DHT22;61320;52.008;4.530;2023-09-18T10:18:07;20.66;82.32
73133;DHT22;61320;52.008;4.530;2023-09-18T10:20:38;20.76;81.82
73133;DHT22;61320;52.008;4.530;2023-09-18T10:23:15;20.73;81.47
73133;DHT22;61320;52.008;4.530;2023-09-18T10:25:54;20.72;81.24
73133;DHT22;61320;52.008;4.530;2023-09-18T10:28:23;20.77;80.24
73133;DHT22;61320;52.008;4.530;2023-09-18T10:30:51;21.01;79.79
73133;DHT22;61320;52.008;4.530;2023-09-18T10:33:17;21.14;79.86
73133;DHT22;61320;52.008;4.530;2023-09-18T10:35:43;21.31;78.48
73133;DHT22;61320;52.008;4.530;2023-09-18T10:38:09;21.42;78.17
73133;DHT22;61320;52.008;4.530;2023-09-18T10:40:36;21.41;77.33
73133;DHT22;61320;52.008;4.530;2023-09-18T10:43:04;21.63;79.27
73133;DHT22;61320;52.008;4.530;2023-09-18T10:45:31;21.79;77.24
73133;DHT22;61320;52.008;4.530;2023-09-18T10:52:50;21.88;77.66
73133;DHT22;61320;52.008;4.530;2023-09-18T10:55:16;21.99;77.69
73133;DHT22;61320;52.008;4.530;2023-09-18T11:13:05;22.43;73.08
73133;DHT22;61320;52.008;4.530;2023-09-18T11:15:32;22.43;73.70
73133;DHT22;61320;52.008;4.530;2023-09-18T11:17:59;22.31;73.81
73133;DHT22;61320;52.008;4.530;2023-09-18T11:20:26;22.24;74.81
73133;DHT22;61320;52.008;4.530;2023-09-18T11:23:16;22.18;73.36
73133;DHT22;61320;52.008;4.530;2023-09-18T11:25:42;22.07;75.00
73133;DHT22;61320;52.008;4.530;2023-09-18T11:28:29;22.07;75.31
73133;DHT22;61320;52.008;4.530;2023-09-18T11:30:57;22.20;75.21
73133;DHT22;61320;52.008;4.530;2023-09-18T11:33:36;22.27;75.02
73133;DHT22;61320;52.008;4.530;2023-09-18T11:36:05;22.37;75.84
73133;DHT22;61320;52.008;4.530;2023-09-18T11:38:31;22.47;75.15
73133;DHT22;61320;52.008;4.530;2023-09-18T11:40:59;22.45;74.33
73133;DHT22;61320;52.008;4.530;2023-09-18T11:43:28;22.40;74.34
73133;DHT22;61320;52.008;4.530;2023-09-18T11:46:01;22.17;73.80
73133;DHT22;61320;52.008;4.530;2023-09-18T11:48:30;22.14;73.39
73133;DHT22;61320;52.008;4.530;2023-09-18T11:51:00;22.10;75.06
73133;DHT22;61320;52.008;4.530;2023-09-18T12:00:58;22.13;74.60
73133;DHT22;61320;52.008;4.530;2023-09-18T12:06:39;22.17;73.03
73133;DHT22;61320;52.008;4.530;2023-09-18T12:09:07;22.29;74.87
73133;DHT22;61320;52.008;4.530;2023-09-18T12:11:48;22.38;74.56
73133;DHT22;61320;52.008;4.530;2023-09-18T12:14:19;22.31;73.78
73133;DHT22;61320;52.008;4.530;2023-09-18T12:16:45;22.33;72.22
73133;DHT22;61320;52.008;4.530;2023-09-18T12:19:19;22.33;72.92
73133;DHT22;61320;52.008;4.530;2023-09-18T12:21:46;22.31;71.57
73133;DHT22;61320;52.008;4.530;2023-09-18T12:24:14;22.24;73.95
73133;DHT22;61320;52.008;4.530;2023-09-18T12:26:39;22.25;74.35
73133;DHT22;61320;52.008;4.530;2023-09-18T12:29:05;22.23;73.57
73133;DHT22;61320;52.008;4.530;2023-09-18T12:31:32;22.29;73.71
73133;DHT22;61320;52.008;4.530;2023-09-18T12:33:58;22.21;75.30
73133;DHT22;61320;52.008;4.530;2023-09-18T12:36:24;22.11;74.24
73133;DHT22;61320;52.008;4.530;2023-09-18T12:38:57;22.06;75.75
73133;DHT22;61320;52.008;4.530;2023-09-18T12:41:26;22.17;75.98
73133;DHT22;61320;52.008;4.530;2023-09-18T12:43:52;22.16;75.39
73133;DHT22;61320;52.008;4.530;2023-09-18T12:46:19;22.23;74.87
73133;DHT22;61320;52.008;4.530;2023-09-18T12:48:46;22.24;74.86
73133;DHT22;61320;52.008;4.530;2023-09-18T12:51:13;22.17;74.68
73133;DHT22;61320;52.008;4.530;2023-09-18T12:53:40;22.14;72.66
73133;DHT22;61320;52.008;4.530;2023-09-18T12:56:10;22.10;73.33
73133;DHT22;61320;52.008;4.530;2023-09-18T12:58:38;22.10;74.85
73133;DHT22;61320;52.008;4.530;2023-09-18T13:01:10;22.20;74.54
73133;DHT22;61320;52.008;4.530;2023-09-18T13:03:49;22.31;73.85
73133;DHT22;61320;52.008;4.530;2023-09-18T13:06:18;22.30;71.31
73133;DHT22;61320;52.008;4.530;2023-09-18T13:08:46;22.29;71.59
73133;DHT22;61320;52.008;4.530;2023-09-18T13:11:11;22.24;72.63
73133;DHT22;61320;52.008;4.530;2023-09-18T13:13:40;22.25;73.82
73133;DHT22;61320;52.008;4.530;2023-09-18T13:16:07;22.24;73.85
73133;DHT22;61320;52.008;4.530;2023-09-18T13:18:37;22.25;72.51
73133;DHT22;61320;52.008;4.530;2023-09-18T13:21:12;22.24;73.85
73133;DHT22;61320;52.008;4.530;2023-09-18T13:23:39;22.31;74.19
73133;DHT22;61320;52.008;4.530;2023-09-18T13:26:07;22.34;73.55
73133;DHT22;61320;52.008;4.530;2023-09-18T13:28:35;22.37;75.19
73133;DHT22;61320;52.008;4.530;2023-09-18T13:31:03;22.36;73.77
73133;DHT22;61320;52.008;4.530;2023-09-18T13:33:32;22.37;73.68
73133;DHT22;61320;52.008;4.530;2023-09-18T13:35:59;22.36;74.61
73133;DHT22;61320;52.008;4.530;2023-09-18T13:38:24;22.41;73.77
73133;DHT22;61320;52.008;4.530;2023-09-18T13:40:53;22.36;73.43
73133;DHT22;61320;52.008;4.530;2023-09-18T13:43:20;22.34;71.81
73133;DHT22;61320;52.008;4.530;2023-09-18T13:45:48;22.36;70.67
73133;DHT22;61320;52.008;4.530;2023-09-18T13:48:17;22.20;72.12
73133;DHT22;61320;52.008;4.530;2023-09-18T13:50:44;22.14;72.26
73133;DHT22;61320;52.008;4.530;2023-09-18T13:53:10;22.09;71.66
73133;DHT22;61320;52.008;4.530;2023-09-18T13:55:35;21.99;72.81
73133;DHT22;61320;52.008;4.530;2023-09-18T13:58:01;21.92;73.88
73133;DHT22;61320;52.008;4.530;2023-09-18T14:00:31;21.92;73.53
73133;DHT22;61320;52.008;4.530;2023-09-18T14:03:01;21.88;72.40
73133;DHT22;61320;52.008;4.530;2023-09-18T14:05:28;21.82;72.71
73133;DHT22;61320;52.008;4.530;2023-09-18T14:07:55;21.75;72.49
73133;DHT22;61320;52.008;4.530;2023-09-18T14:10:26;21.69;72.82
73133;DHT22;61320;52.008;4.530;2023-09-18T14:12:52;21.65;76.95
73133;DHT22;61320;52.008;4.530;2023-09-18T14:15:17;21.43;76.54
73133;DHT22;61320;52.008;4.530;2023-09-18T14:17:44;21.11;76.62
73133;DHT22;61320;52.008;4.530;2023-09-18T14:20:09;20.85;79.31
73133;DHT22;61320;52.008;4.530;2023-09-18T14:22:36;20.50;83.20
73133;DHT22;61320;52.008;4.530;2023-09-18T14:25:02;19.67;84.34
73133;DHT22;61320;52.008;4.530;2023-09-18T14:29:55;18.84;88.66
73133;DHT22;61320;52.008;4.530;2023-09-18T14:32:22;18.71;89.50
73133;DHT22;61320;52.008;4.530;2023-09-18T14:34:47;18.62;89.61
73133;DHT22;61320;52.008;4.530;2023-09-18T14:37:13;18.58;90.06
73133;DHT22;61320;52.008;4.530;2023-09-18T14:39:39;18.64;90.46
73133;DHT22;61320;52.008;4.530;2023-09-18T14:42:04;18.64;90.45
73133;DHT22;61320;52.008;4.530;2023-09-18T14:44:30;18.67;90.48
73133;DHT22;61320;52.008;4.530;2023-09-18T14:46:56;18.62;89.29
73133;DHT22;61320;52.008;4.530;2023-09-18T14:49:22;18.59;89.42
73133;DHT22;61320;52.008;4.530;2023-09-18T14:51:48;18.54;89.14
73133;DHT22;61320;52.008;4.530;2023-09-18T14:54:15;18.51;88.82
73133;DHT22;61320;52.008;4.530;2023-09-18T14:56:41;18.50;88.89
73133;DHT22;61320;52.008;4.530;2023-09-18T14:59:07;18.45;88.50
73133;DHT22;61320;52.008;4.530;2023-09-18T15:01:33;18.41;87.99
73133;DHT22;61320;52.008;4.530;2023-09-18T15:03:58;18.31;88.48
73133;DHT22;61320;52.008;4.530;2023-09-18T15:06:24;18.38;88.45
73133;DHT22;61320;52.008;4.530;2023-09-18T15:08:49;18.41;88.92
73133;DHT22;61320;52.008;4.530;2023-09-18T15:11:15;18.54;89.25
73133;DHT22;61320;52.008;4.530;2023-09-18T15:13:45;18.65;88.00
73133;DHT22;61320;52.008;4.530;2023-09-18T15:16:10;18.75;88.40
73133;DHT22;61320;52.008;4.530;2023-09-18T15:18:36;18.81;88.81
73133;DHT22;61320;52.008;4.530;2023-09-18T15:21:02;18.92;88.94
73133;DHT22;61320;52.008;4.530;2023-09-18T15:23:28;19.05;88.18
73133;DHT22;61320;52.008;4.530;2023-09-18T15:25:55;19.09;86.99
73133;DHT22;61320;52.008;4.530;2023-09-18T15:28:23;19.13;87.01
73133;DHT22;61320;52.008;4.530;2023-09-18T15:30:51;19.08;87.55
73133;DHT22;61320;52.008;4.530;2023-09-18T15:33:17;19.03;87.25
73133;DHT22;61320;52.008;4.530;2023-09-18T15:35:45;19.09;87.05
73133;DHT22;61320;52.008;4.530;2023-09-18T15:38:11;19.09;87.82
73133;DHT22;61320;52.008;4.530;2023-09-18T15:40:37;19.13;86.94
73133;DHT22;61320;52.008;4.530;2023-09-18T15:43:04;19.03;86.76
73133;DHT22;61320;52.008;4.530;2023-09-18T15:45:30;18.98;86.91
73133;DHT22;61320;52.008;4.530;2023-09-18T15:47:56;19.02;86.32
73133;DHT22;61320;52.008;4.530;2023-09-18T15:50:22;18.95;86.88
73133;DHT22;61320;52.008;4.530;2023-09-18T15:52:47;18.99;87.73
73133;DHT22;61320;52.008;4.530;2023-09-18T15:55:14;19.03;87.25
73133;DHT22;61320;52.008;4.530;2023-09-18T15:57:40;19.06;86.43
73133;DHT22;61320;52.008;4.530;2023-09-18T16:00:08;18.99;86.70
73133;DHT22;61320;52.008;4.530;2023-09-18T16:02:35;18.98;86.88
73133;DHT22;61320;52.008;4.530;2023-09-18T16:05:02;18.98;86.95
73133;DHT22;61320;52.008;4.530;2023-09-18T16:07:34;18.98;87.12
73133;DHT22;61320;52.008;4.530;2023-09-18T16:10:02;18.92;87.13
73133;DHT22;61320;52.008;4.530;2023-09-18T16:12:32;18.87;86.25
73133;DHT22;61320;52.008;4.530;2023-09-18T16:14:59;18.88;86.70